Time;durP1;ratioP1;P1;durP2;ratioP2;P2;SDS_P1;SDS_P2;PMS_P1;PMS_P2;Temp;Humidity;BMP_temperature;BMP_pressure;BME280_temperature;BME280_humidity;BME280_pressure;Samples;Min_cycle;Max_cycle;Signal;HPM_P1;HPM_P2
2022/07/03 00:00:57;;;;;;;10.83;9.83;;;;;;;20.32;100.00;62976.63;5070166;28;20200;-74
2022/07/03 00:03:25;;;;;;;14.33;9.77;;;;;;;20.45;100.00;62992.72;5057905;28;20203;-73
2022/07/03 00:05:52;;;;;;;24.83;13.90;;;;;;;20.48;100.00;62990.78;5072511;28;20222;-73
2022/07/03 00:08:21;;;;;;;45.40;20.50;;;;;;;20.23;100.00;62966.88;5050819;28;20359;-75
2022/07/03 00:10:48;;;;;;;41.77;18.73;;;;;;;19.69;100.00;62905.91;5051210;28;20208;-73
2022/07/03 00:13:16;;;;;;;37.27;17.80;;;;;;;20.34;100.00;62975.66;5051131;28;20200;-73
2022/07/03 00:15:43;;;;;;;42.20;18.33;;;;;;;20.41;100.00;62983.22;5037175;28;20225;-76
2022/07/03 00:18:13;;;;;;;30.63;15.70;;;;;;;20.40;100.00;62985.28;5062725;28;20681;-74
2022/07/03 00:20:46;;;;;;;28.70;14.90;;;;;;;20.41;100.00;62988.94;5070236;28;20211;-75
2022/07/03 00:23:18;;;;;;;22.47;13.53;;;;;;;20.42;100.00;62987.44;5070074;28;20655;-74
2022/07/03 00:25:45;;;;;;;16.90;10.27;;;;;;;20.41;100.00;62983.75;5070654;28;20204;-74
2022/07/03 00:28:12;;;;;;;12.37;9.17;;;;;;;20.61;100.00;63010.56;5070233;28;20590;-73
2022/07/03 00:30:40;;;;;;;11.97;10.33;;;;;;;20.53;100.00;62999.34;5062347;28;20243;-73
2022/07/03 00:33:08;;;;;;;11.37;8.97;;;;;;;20.52;100.00;62997.72;5050885;28;20197;-75
2022/07/03 00:35:38;;;;;;;12.13;9.03;;;;;;;20.30;100.00;62971.88;5050571;28;20737;-75
2022/07/03 00:38:07;;;;;;;10.80;9.00;;;;;;;20.33;100.00;62975.13;5050680;28;20193;-74
2022/07/03 00:40:35;;;;;;;9.00;8.10;;;;;;;19.81;100.00;62918.88;5050814;28;20292;-75
2022/07/03 00:43:03;;;;;;;9.13;8.13;;;;;;;20.19;100.00;62965.69;5054661;28;20204;-74
2022/07/03 00:45:35;;;;;;;11.60;8.60;;;;;;;20.20;100.00;62961.06;5054369;28;20197;-75
2022/07/03 00:48:06;;;;;;;10.77;8.80;;;;;;;20.26;100.00;62974.78;5054180;28;20551;-74
2022/07/03 00:50:35;;;;;;;11.77;8.60;;;;;;;20.33;100.00;62975.13;5055904;28;20209;-74
2022/07/03 00:53:10;;;;;;;13.03;8.97;;;;;;;20.35;100.00;62981.91;5074385;28;20203;-74
2022/07/03 00:55:38;;;;;;;9.30;8.33;;;;;;;20.21;100.00;62967.31;5072814;28;20216;-73
2022/07/03 00:58:06;;;;;;;11.17;8.90;;;;;;;20.09;100.00;62949.16;5035131;28;20216;-75
2022/07/03 01:00:39;;;;;;;10.50;9.40;;;;;;;20.18;100.00;62961.47;5069977;28;20659;-76
2022/07/03 01:03:08;;;;;;;9.73;8.70;;;;;;;20.20;100.00;62963.66;5061011;28;20680;-74
2022/07/03 01:05:39;;;;;;;11.13;9.27;;;;;;;20.25;100.00;62969.06;5059885;28;20683;-74
2022/07/03 01:08:18;;;;;;;14.27;9.77;;;;;;;19.53;100.00;62891.19;5073112;28;20204;-75
2022/07/03 01:10:56;;;;;;;9.67;8.67;;;;;;;20.40;100.00;62987.31;5074120;28;20207;-73
2022/07/03 01:13:37;;;;;;;12.63;9.20;;;;;;;19.86;100.00;62924.28;5073749;28;20196;-74
2022/07/03 01:16:09;;;;;;;11.67;9.63;;;;;;;19.65;100.00;62901.59;5050028;28;20219;-74
2022/07/03 01:18:40;;;;;;;13.33;9.47;;;;;;;20.53;100.00;62996.75;5060049;28;20205;-75
2022/07/03 01:21:09;;;;;;;15.63;9.63;;;;;;;20.37;100.00;62981.47;5064390;28;20201;-74
2022/07/03 01:24:23;;;;;;;11.40;8.67;;;;;;;20.42;100.00;62984.31;5054266;28;20197;-73
2022/07/03 01:26:58;;;;;;;16.17;9.87;;;;;;;20.30;100.00;62971.34;4973508;28;20207;-73
2022/07/03 01:29:32;;;;;;;13.43;10.20;;;;;;;20.33;100.00;62980.28;5034467;28;20588;-74
2022/07/03 01:32:01;;;;;;;12.10;9.57;;;;;;;20.29;100.00;62975.97;5054158;28;20334;-74
2022/07/03 01:34:35;;;;;;;10.57;9.43;;;;;;;20.16;100.00;62959.84;5054793;28;20197;-73
2022/07/03 01:37:03;;;;;;;10.17;9.17;;;;;;;19.89;100.00;62930.09;5042517;28;20231;-74
2022/07/03 01:39:32;;;;;;;14.50;9.30;;;;;;;20.08;100.00;62953.25;5054134;28;20213;-74
2022/07/03 01:42:03;;;;;;;10.90;9.80;;;;;;;20.09;100.00;62949.16;5054560;28;20204;-75
2022/07/03 01:44:33;;;;;;;12.27;9.57;;;;;;;20.27;100.00;62973.25;5056447;28;20206;-73
2022/07/03 01:47:02;;;;;;;14.17;10.20;;;;;;;20.32;100.00;62974.03;5054250;28;20308;-74
2022/07/03 01:49:31;;;;;;;9.97;8.67;;;;;;;20.34;100.00;62981.38;5054920;28;20204;-74
2022/07/03 01:51:59;;;;;;;12.30;8.50;;;;;;;20.47;100.00;62995.44;5053636;28;20212;-74
2022/07/03 01:54:27;;;;;;;11.40;8.50;;;;;;;20.56;100.00;62999.44;5065381;28;20216;-74
2022/07/03 01:56:54;;;;;;;11.63;8.37;;;;;;;20.51;100.00;62994.56;5069632;28;20232;-75
2022/07/03 01:59:23;;;;;;;9.60;8.17;;;;;;;20.40;100.00;62982.69;5066401;28;20201;-73
2022/07/03 02:01:53;;;;;;;9.83;8.37;;;;;;;20.44;100.00;62992.19;5066482;28;20204;-74
2022/07/03 02:04:25;;;;;;;10.97;8.93;;;;;;;20.31;100.00;62975.53;5074964;28;20223;-73
2022/07/03 02:07:02;;;;;;;11.30;8.37;;;;;;;19.96;100.00;62935.09;5053398;28;20200;-75
2022/07/03 02:09:42;;;;;;;10.93;8.33;;;;;;;20.11;100.00;62951.84;5052776;28;20215;-73
2022/07/03 02:12:14;;;;;;;12.17;8.43;;;;;;;20.10;100.00;62950.22;5072253;28;20258;-75
2022/07/03 02:14:49;;;;;;;11.10;8.07;;;;;;;20.18;100.00;62964.06;5058946;28;20205;-75
2022/07/03 02:17:18;;;;;;;13.37;8.47;;;;;;;20.21;100.00;62962.13;5061013;28;20231;-73
2022/07/03 02:19:53;;;;;;;9.80;8.33;;;;;;;20.31;100.00;62972.94;5072203;28;20208;-75
2022/07/03 02:22:26;;;;;;;10.23;8.20;;;;;;;20.29;100.00;62975.97;5072018;28;20204;-74
2022/07/03 02:24:53;;;;;;;11.70;8.27;;;;;;;20.30;100.00;62971.88;5054842;28;20200;-74
2022/07/03 02:27:24;;;;;;;8.93;7.80;;;;;;;20.21;100.00;62962.13;5056648;28;20208;-73
2022/07/03 02:29:56;;;;;;;11.77;9.23;;;;;;;20.15;100.00;62953.59;5061131;28;20205;-75
2022/07/03 02:32:24;;;;;;;15.23;9.50;;;;;;;20.01;100.00;62940.50;5039071;28;20283;-74
2022/07/03 02:34:59;;;;;;;12.97;9.50;;;;;;;20.01;100.00;62946.22;5052322;28;20196;-73
2022/07/03 02:37:31;;;;;;;19.77;9.97;;;;;;;20.03;100.00;62945.25;5052244;28;20290;-75
2022/07/03 02:40:04;;;;;;;12.50;9.50;;;;;;;20.02;100.00;62942.09;5065348;28;20740;-75
2022/07/03 02:42:46;;;;;;;16.30;10.20;;;;;;;20.00;100.00;62945.13;5043851;28;20206;-74
2022/07/03 02:45:15;;;;;;;12.40;9.00;;;;;;;20.15;100.00;62955.63;5050533;28;20628;-76
2022/07/03 02:47:49;;;;;;;8.83;7.90;;;;;;;20.17;100.00;62963.50;5052704;28;20698;-74
2022/07/03 02:50:22;;;;;;;11.90;8.63;;;;;;;20.09;100.00;62951.72;5065293;28;20211;-73
2022/07/03 02:52:57;;;;;;;9.63;8.10;;;;;;;20.12;100.00;62955.50;5069527;28;20215;-74
2022/07/03 02:55:42;;;;;;;12.27;7.83;;;;;;;20.12;100.00;62954.97;5071371;28;20222;-75
2022/07/03 02:58:28;;;;;;;13.70;7.63;;;;;;;20.14;100.00;62959.72;5071552;28;20746;-74
2022/07/03 03:01:07;;;;;;;12.13;8.30;;;;;;;20.12;100.00;62958.09;5072460;28;20208;-74
2022/07/03 03:03:36;;;;;;;10.97;8.07;;;;;;;20.09;100.00;62949.16;5071690;28;20200;-74
2022/07/03 03:06:06;;;;;;;11.80;8.07;;;;;;;20.11;100.00;62959.63;5072000;28;20196;-74
2022/07/03 03:08:38;;;;;;;12.07;7.57;;;;;;;20.10;100.00;62950.22;5063194;28;20203;-76
2022/07/03 03:11:08;;;;;;;13.73;7.87;;;;;;;20.05;100.00;62945.38;5051777;28;20315;-75
2022/07/03 03:13:36;;;;;;;9.43;7.27;;;;;;;20.06;100.00;62945.91;5052342;28;20270;-74
2022/07/03 03:16:08;;;;;;;11.87;7.47;;;;;;;19.98;100.00;62942.44;5051858;28;20208;-74
2022/07/03 03:18:37;;;;;;;12.87;7.67;;;;;;;20.13;100.00;62953.47;5051642;28;20236;-74
2022/07/03 03:21:05;;;;;;;10.27;7.73;;;;;;;20.11;100.00;62951.31;5051615;28;20197;-75
2022/07/03 03:23:43;;;;;;;12.00;7.73;;;;;;;20.11;100.00;62954.44;5051277;28;20563;-75
2022/07/03 03:26:11;;;;;;;12.40;8.30;;;;;;;20.07;100.00;62949.56;5051902;28;20212;-74
2022/07/03 03:28:39;;;;;;;13.40;7.70;;;;;;;19.40;100.00;62872.53;5064619;28;20208;-74
2022/07/03 03:31:08;;;;;;;12.47;7.90;;;;;;;19.88;100.00;62926.44;5050952;28;20229;-74
2022/07/03 03:33:40;;;;;;;13.53;8.13;;;;;;;20.28;100.00;62969.16;5051693;28;20201;-74
2022/07/03 03:36:08;;;;;;;10.73;7.93;;;;;;;20.40;100.00;62979.56;5052015;28;20247;-73
2022/07/03 03:38:36;;;;;;;13.97;7.87;;;;;;;19.96;100.00;62935.09;5052057;28;20235;-73
2022/07/03 03:41:04;;;;;;;11.13;7.50;;;;;;;20.58;100.00;63002.16;5051852;28;20509;-75
2022/07/03 03:43:32;;;;;;;11.47;7.80;;;;;;;20.42;100.00;62984.84;5051528;28;20201;-75
2022/07/03 03:46:00;;;;;;;7.63;6.87;;;;;;;20.69;100.00;63013.50;5065527;28;20197;-73
2022/07/03 03:48:30;;;;;;;10.77;7.73;;;;;;;20.66;100.00;63010.81;5051578;28;20197;-74
2022/07/03 03:50:57;;;;;;;12.00;7.90;;;;;;;20.68;100.00;63017.59;5077970;28;20204;-73
2022/07/03 03:53:27;;;;;;;12.67;8.23;;;;;;;20.81;100.00;63027.03;5085463;28;20196;-73
2022/07/03 03:56:01;;;;;;;14.70;8.03;;;;;;;20.86;100.00;63031.91;5085746;28;20647;-73
2022/07/03 03:58:28;;;;;;;12.33;7.70;;;;;;;20.96;100.00;63043.28;5084944;28;20277;-74
2022/07/03 04:00:57;;;;;;;13.23;7.93;;;;;;;21.07;100.00;63054.09;5079388;28;20692;-74
2022/07/03 04:03:25;;;;;;;12.93;7.90;;;;;;;21.05;100.00;63051.94;5080533;28;20215;-73
2022/07/03 04:05:55;;;;;;;9.33;7.17;;;;;;;21.06;100.00;63058.19;5072763;28;20290;-74
2022/07/03 04:08:23;;;;;;;14.10;8.13;;;;;;;20.59;100.00;63005.81;5070683;28;20236;-74
2022/07/03 04:10:51;;;;;;;11.90;7.47;;;;;;;20.96;100.00;63043.28;5069689;28;20204;-73
2022/07/03 04:13:20;;;;;;;12.77;7.50;;;;;;;21.01;100.00;63048.69;5070412;28;20207;-74
2022/07/03 04:15:47;;;;;;;9.30;7.13;;;;;;;21.05;100.00;63055.06;5071060;28;20200;-75
2022/07/03 04:18:13;;;;;;;11.90;7.57;;;;;;;21.12;100.00;63062.66;5074406;28;20238;-74
2022/07/03 04:20:40;;;;;;;8.90;7.53;;;;;;;21.22;100.00;63065.16;5073828;28;20211;-74
2022/07/03 04:23:09;;;;;;;12.13;7.50;;;;;;;21.13;100.00;63060.59;5074517;28;20196;-74
2022/07/03 04:25:36;;;;;;;10.27;7.17;;;;;;;21.41;100.00;63093.50;5074363;28;20208;-74
2022/07/03 04:28:05;;;;;;;8.60;7.40;;;;;;;21.38;100.00;63087.66;5074928;28;20613;-75
2022/07/03 04:30:32;;;;;;;9.20;7.30;;;;;;;21.37;100.00;63086.56;5073825;28;20773;-74
2022/07/03 04:32:59;;;;;;;9.33;7.13;;;;;;;21.38;100.00;63087.66;5074763;28;20196;-73
2022/07/03 04:35:26;;;;;;;8.33;7.17;;;;;;;21.43;100.00;63093.59;5070503;28;20253;-74
2022/07/03 04:37:57;;;;;;;9.23;7.00;;;;;;;21.75;100.00;63130.31;5063251;28;20223;-74
2022/07/03 04:40:25;;;;;;;9.87;7.03;;;;;;;21.72;100.00;63124.44;5066437;28;20205;-74
2022/07/03 04:42:52;;;;;;;10.10;7.50;;;;;;;21.85;100.00;63141.16;5054528;28;20593;-73
2022/07/03 04:45:19;;;;;;;15.77;7.53;;;;;;;22.10;100.00;63165.06;5054907;28;20197;-75
2022/07/03 04:47:46;;;;;;;10.17;7.17;;;;;;;22.24;100.00;63177.66;5054508;28;20702;-74
2022/07/03 04:50:13;;;;;;;8.50;7.20;;;;;;;22.28;100.00;63182.53;5054651;28;20208;-74
2022/07/03 04:52:40;;;;;;;11.37;7.80;;;;;;;22.36;100.00;63193.25;5054305;28;20204;-75
2022/07/03 04:55:09;;;;;;;14.10;7.80;;;;;;;22.49;100.00;63207.34;5054189;28;20228;-72
2022/07/03 04:57:40;;;;;;;10.03;7.50;;;;;;;22.65;100.00;63227.84;5053812;28;20637;-74
2022/07/03 05:00:08;;;;;;;11.47;8.03;;;;;;;22.18;100.00;63174.28;5064815;28;20579;-75
2022/07/03 05:02:35;;;;;;;10.17;8.83;;;;;;;22.44;100.00;63202.44;5070145;28;20226;-75
2022/07/03 05:05:03;;;;;;;11.23;9.47;;;;;;;22.19;100.00;63177.97;5054156;28;20204;-75
2022/07/03 05:07:30;;;;;;;10.37;9.17;;;;;;;22.55;100.00;63213.84;5053746;28;20212;-74
2022/07/03 05:09:58;;;;;;;13.50;10.40;;;;;;;22.83;100.00;63243.66;5054056;28;20215;-74
2022/07/03 05:12:25;;;;;;;15.77;10.57;;;;;;;23.06;100.00;63268.59;5054985;28;20204;-75
2022/07/03 05:14:54;;;;;;;11.53;10.33;;;;;;;23.18;100.00;63276.94;5054308;28;20205;-74
2022/07/03 05:17:21;;;;;;;15.53;9.73;;;;;;;23.45;100.00;63310.88;5053984;28;20250;-73
2022/07/03 05:20:23;;;;;;;18.80;9.87;;;;;;;22.85;100.00;63251.00;5053717;28;20599;-73
2022/07/03 05:22:35;;;;;;;18.07;9.90;;;;;;;23.55;100.00;63319.13;5067011;28;20699;-75
2022/07/03 05:25:03;;;;;;;11.30;9.50;;;;;;;23.54;100.00;63320.66;5053649;28;20215;-74
2022/07/03 05:27:30;;;;;;;14.60;9.00;;;;;;;23.43;100.00;63313.91;5053062;28;20201;-74
2022/07/03 05:30:01;;;;;;;17.57;9.67;;;;;;;23.79;100.00;63347.75;5052197;28;20201;-75
2022/07/03 05:32:30;;;;;;;11.53;9.70;;;;;;;23.72;100.00;63340.19;5053350;28;20602;-73
2022/07/03 05:34:57;;;;;;;12.90;9.60;;;;;;;23.88;100.00;63357.53;5053473;28;20204;-75
2022/07/03 05:37:25;;;;;;;14.17;9.13;;;;;;;24.33;100.00;63405.28;5051938;28;20232;-75
2022/07/03 05:39:52;;;;;;;13.03;8.60;;;;;;;24.48;100.00;63421.56;5053076;28;20204;-74
2022/07/03 05:42:19;;;;;;;13.40;8.77;;;;;;;24.71;100.00;63446.53;5072679;28;20664;-75
2022/07/03 05:44:48;;;;;;;11.03;8.67;;;;;;;24.83;100.00;63459.59;5072038;28;20196;-74
2022/07/03 05:47:16;;;;;;;14.20;8.90;;;;;;;24.79;100.00;63455.78;5048512;28;20201;-75
2022/07/03 05:49:43;;;;;;;13.90;9.07;;;;;;;24.91;100.00;63468.28;5072439;28;20576;-74
2022/07/03 05:52:11;;;;;;;13.00;8.70;;;;;;;24.66;100.00;63443.69;5065414;28;20592;-74
2022/07/03 05:54:38;;;;;;;13.80;8.87;;;;;;;24.43;100.00;63416.16;5067276;28;20231;-77
2022/07/03 05:57:06;;;;;;;11.00;8.97;;;;;;;24.17;100.00;63389.00;5072941;28;20212;-74
2022/07/03 05:59:34;;;;;;;15.37;9.47;;;;;;;24.70;100.00;63445.44;5071838;28;20211;-74
2022/07/03 06:02:03;;;;;;;11.73;10.30;;;;;;;25.09;100.00;63488.34;5072680;28;20815;-73
2022/07/03 06:04:32;;;;;;;13.27;10.43;;;;;;;25.48;100.00;63532.78;5073399;28;20216;-75
2022/07/03 06:06:59;;;;;;;10.87;9.77;;;;;;;25.51;100.00;63533.44;5072504;28;20216;-74
2022/07/03 06:09:27;;;;;;;13.30;9.67;;;;;;;25.77;100.00;63561.69;5071768;28;20254;-74
2022/07/03 06:11:56;;;;;;;13.13;9.70;;;;;;;25.90;100.00;63575.81;5072022;28;20669;-75
2022/07/03 06:14:23;;;;;;;14.80;10.00;;;;;;;25.48;100.00;63530.19;5071680;28;20199;-74
2022/07/03 06:16:51;;;;;;;10.47;9.37;;;;;;;25.45;100.00;63526.94;5071959;28;20204;-75
2022/07/03 06:19:18;;;;;;;11.63;9.80;;;;;;;25.05;100.00;63486.06;5066767;28;20233;-74
2022/07/03 06:21:47;;;;;;;13.93;9.27;;;;;;;24.72;100.00;63452.81;5063568;28;20575;-73
2022/07/03 06:24:14;;;;;;;13.73;9.93;;;;;;;25.19;100.00;63501.28;5070475;28;20210;-75
2022/07/03 06:26:43;;;;;;;12.07;9.30;;;;;;;25.47;100.00;63529.09;5057019;28;20604;-75
2022/07/03 06:29:10;;;;;;;13.97;9.50;;;;;;;25.48;100.00;63530.19;5063569;28;20201;-74
2022/07/03 06:31:37;;;;;;;12.63;9.60;;;;;;;26.02;100.00;63587.78;5071496;28;20704;-74
2022/07/03 06:34:04;;;;;;;19.10;10.23;;;;;;;26.30;100.00;63615.63;5072064;28;20591;-75
2022/07/03 06:36:32;;;;;;;12.57;9.20;;;;;;;26.34;100.00;63622.59;5071481;28;20637;-76
2022/07/03 06:39:00;;;;;;;13.13;9.10;;;;;;;26.45;100.00;63634.53;5071455;28;20318;-74
2022/07/03 06:41:28;;;;;;;19.07;8.93;;;;;;;26.61;100.00;63651.94;5071507;28;20200;-74
2022/07/03 06:43:54;;;;;;;12.07;8.90;;;;;;;25.91;100.00;63576.91;5072231;28;20208;-74
2022/07/03 06:46:21;;;;;;;14.07;9.20;;;;;;;26.77;100.00;63669.34;5071493;28;20197;-74
2022/07/03 06:48:48;;;;;;;12.67;8.87;;;;;;;27.02;100.00;63698.63;5071707;28;20235;-73
2022/07/03 06:51:16;;;;;;;11.87;8.80;;;;;;;27.18;100.00;63713.94;5071609;28;20360;-73
2022/07/03 06:53:43;;;;;;;15.60;8.50;;;;;;;27.12;100.00;63706.88;5059566;28;20225;-75
2022/07/03 06:56:12;;;;;;;11.53;8.63;;;;;;;27.22;100.00;63715.69;5051926;28;20618;-74
2022/07/03 06:58:39;;;;;;;11.13;8.57;;;;;;;26.80;100.00;63672.63;5051565;28;20224;-74
2022/07/03 07:01:06;;;;;;;15.60;8.90;;;;;;;27.38;100.00;63735.72;5057858;28;20203;-75
2022/07/03 07:03:34;;;;;;;10.73;8.60;;;;;;;27.57;100.00;63755.84;5063083;28;20213;-75
2022/07/03 07:06:01;;;;;;;12.17;8.60;;;;;;;27.48;100.00;63740.81;5051921;28;20576;-74
2022/07/03 07:08:28;;;;;;;13.60;9.47;;;;;;;27.22;100.00;63718.31;5051731;28;20745;-75
2022/07/03 07:10:55;;;;;;;14.37;9.83;;;;;;;26.66;100.00;63657.91;5051671;28;20208;-75
2022/07/03 07:13:25;;;;;;;11.43;9.97;;;;;;;26.29;100.00;63619.75;5051415;28;20200;-75
2022/07/03 07:15:52;;;;;;;10.23;8.83;;;;;;;26.41;100.00;63630.19;5064798;28;20216;-75
2022/07/03 07:18:19;;;;;;;18.97;8.93;;;;;;;26.59;100.00;63644.53;5050183;28;20282;-74
2022/07/03 07:20:47;;;;;;;11.33;8.27;;;;;;;26.36;100.00;63625.28;5064385;28;20644;-76
2022/07/03 07:23:13;;;;;;;10.40;7.47;;;;;;;27.05;100.00;63699.25;5051585;28;20742;-75
2022/07/03 07:25:41;;;;;;;8.90;7.40;;;;;;;27.08;100.00;63708.31;5066027;28;20541;-75
2022/07/03 07:28:08;;;;;;;13.57;7.80;;;;;;;27.68;100.00;63767.81;5070903;28;20207;-76
2022/07/03 07:30:36;;;;;;;7.63;6.83;;;;;;;27.85;100.00;63785.78;5070455;28;20211;-74
2022/07/03 07:33:03;;;;;;;9.33;7.40;;;;;;;27.78;100.00;63778.16;5059000;28;20207;-74
2022/07/03 07:35:31;;;;;;;9.07;7.20;;;;;;;28.13;100.00;63818.91;5070775;28;20279;-74
2022/07/03 07:37:58;;;;;;;9.63;6.90;;;;;;;28.39;100.00;63847.22;5070908;28;20232;-75
2022/07/03 07:40:25;;;;;;;22.10;8.67;;;;;;;28.34;100.00;63844.38;5068494;28;20204;-73
2022/07/03 07:42:53;;;;;;;10.73;7.93;;;;;;;28.22;100.00;63831.88;5051168;28;20605;-73
2022/07/03 07:45:22;;;;;;;10.63;8.40;;;;;;;28.15;100.00;63818.47;5064107;28;20197;-75
2022/07/03 07:47:52;;;;;;;11.90;8.00;;;;;;;27.84;100.00;63784.69;5066941;28;20212;-76
2022/07/03 07:50:20;;;;;;;13.13;7.33;;;;;;;27.94;100.00;63795.56;5070603;28;20208;-75
2022/07/03 07:52:48;;;;;;;9.83;7.97;;;;;;;27.48;100.00;63749.22;5070564;28;20288;-75
2022/07/03 07:55:15;;;;;;;9.63;8.53;;;;;;;28.03;100.00;63805.41;5070060;28;20220;-75
2022/07/03 07:57:42;;;;;;;12.27;7.90;;;;;;;28.62;100.00;63877.53;5069161;28;20200;-76
2022/07/03 08:00:11;;;;;;;9.30;7.50;;;;;;;28.15;100.00;63821.09;5070886;28;20196;-74
2022/07/03 08:05:36;;;;;;;10.67;7.80;;;;;;;28.57;100.00;63864.22;5060849;28;20713;-74
2022/07/03 08:08:06;;;;;;;8.17;7.47;;;;;;;28.78;100.00;63887.09;5058293;28;20626;-75
2022/07/03 08:10:38;;;;;;;8.33;7.00;;;;;;;28.72;100.00;63880.56;5050860;28;20205;-76
2022/07/03 08:13:07;;;;;;;12.67;7.00;;;;;;;27.99;100.00;63806.28;5050896;28;20209;-75
2022/07/03 08:15:34;;;;;;;7.37;6.43;;;;;;;28.23;100.00;63827.19;5051409;28;20236;-75
2022/07/03 08:18:07;;;;;;;8.03;6.60;;;;;;;28.59;100.00;63871.66;5063623;28;20200;-76
2022/07/03 08:20:38;;;;;;;7.97;6.53;;;;;;;29.01;100.00;63911.59;5051317;28;20201;-75
2022/07/03 08:23:05;;;;;;;9.60;6.50;;;;;;;29.33;100.00;63946.50;5069155;28;20298;-73
2022/07/03 08:25:33;;;;;;;9.53;6.50;;;;;;;29.70;100.00;63986.81;5061920;28;20209;-75
2022/07/03 08:28:00;;;;;;;8.10;6.80;;;;;;;29.80;100.00;63999.84;5050794;28;20197;-74
2022/07/03 08:30:28;;;;;;;8.77;7.17;;;;;;;30.07;100.00;64026.63;5051169;28;20198;-74
2022/07/03 08:32:57;;;;;;;9.60;6.30;;;;;;;29.84;100.00;64006.81;5050145;28;20234;-75
2022/07/03 08:35:24;;;;;;;7.93;6.63;;;;;;;28.99;100.00;63912.59;5051205;28;20202;-74
2022/07/03 08:37:53;;;;;;;11.33;6.53;;;;;;;28.93;100.00;63903.44;5051264;28;20197;-74
2022/07/03 08:40:21;;;;;;;7.57;5.90;;;;;;;29.53;100.00;63967.75;5051063;28;20203;-73
2022/07/03 08:42:49;;;;;;;8.60;6.10;;;;;;;29.66;100.00;63981.94;5050858;28;20195;-75
2022/07/03 08:45:18;;;;;;;8.27;6.30;;;;;;;29.70;100.00;63991.53;5050929;28;20198;-75
2022/07/03 08:47:46;;;;;;;6.73;6.03;;;;;;;29.93;100.00;64011.94;5051600;28;20252;-74
2022/07/03 08:50:17;;;;;;;12.87;6.33;;;;;;;30.33;100.00;64060.28;5050651;28;20205;-75
2022/07/03 08:52:45;;;;;;;8.57;5.80;;;;;;;29.90;100.00;64002.84;5051005;28;20206;-74
2022/07/03 08:55:14;;;;;;;7.23;5.63;;;;;;;30.60;100.00;64083.94;5051162;28;20227;-74
2022/07/03 08:57:42;;;;;;;7.60;6.10;;;;;;;30.72;100.00;64100.19;5040009;28;20279;-74
2022/07/03 09:00:12;;;;;;;6.87;6.03;;;;;;;30.73;100.00;64101.28;5053753;28;20727;-74
2022/07/03 09:02:40;;;;;;;7.63;6.10;;;;;;;30.86;100.00;64117.59;5073121;28;20198;-75
2022/07/03 09:05:09;;;;;;;10.87;6.07;;;;;;;31.00;100.00;64129.69;5062630;28;20345;-74
2022/07/03 09:07:37;;;;;;;9.07;6.23;;;;;;;30.86;100.00;64114.41;5066179;28;20208;-74
2022/07/03 09:10:06;;;;;;;11.27;6.10;;;;;;;30.69;100.00;64099.56;5068065;28;20252;-74
2022/07/03 09:12:35;;;;;;;11.97;6.90;;;;;;;31.17;100.00;64145.59;5079460;28;20204;-75
2022/07/03 09:15:04;;;;;;;9.13;5.73;;;;;;;31.28;100.00;64157.59;5067045;28;20204;-73
2022/07/03 09:17:32;;;;;;;7.10;5.70;;;;;;;31.64;100.00;64199.56;5069054;28;20212;-76
2022/07/03 09:19:59;;;;;;;8.37;6.20;;;;;;;31.97;100.00;64238.25;5072079;28;20237;-75
2022/07/03 09:22:28;;;;;;;6.03;5.43;;;;;;;31.99;100.00;64237.81;5079983;28;20208;-74
2022/07/03 09:25:03;;;;;;;6.20;5.10;;;;;;;31.79;100.00;64213.31;5069881;28;20205;-74
2022/07/03 09:27:32;;;;;;;6.50;5.50;;;;;;;31.96;100.00;64226.63;5056178;28;20237;-75
2022/07/03 09:30:02;;;;;;;8.77;5.80;;;;;;;31.88;100.00;64223.13;5055113;28;20209;-75
2022/07/03 09:32:34;;;;;;;11.40;5.57;;;;;;;31.96;100.00;64229.25;5055123;28;20232;-76
2022/07/03 09:35:19;;;;;;;6.63;5.47;;;;;;;32.01;100.00;64234.72;5054675;28;20296;-75
2022/07/03 09:37:50;;;;;;;8.13;5.27;;;;;;;32.12;100.00;64248.81;5054498;28;20238;-75
2022/07/03 09:40:17;;;;;;;5.90;5.33;;;;;;;31.49;100.00;64177.94;5054977;28;20221;-74
2022/07/03 09:42:59;;;;;;;14.00;6.10;;;;;;;31.98;100.00;64231.44;5055232;28;20637;-75
2022/07/03 09:45:30;;;;;;;6.93;5.33;;;;;;;32.08;100.00;64245.00;5054585;28;20215;-75
2022/07/03 09:47:57;;;;;;;7.53;5.73;;;;;;;32.13;100.00;64250.47;5062884;28;20204;-75
2022/07/03 09:50:26;;;;;;;7.93;5.50;;;;;;;32.14;100.00;64254.19;5073559;28;20268;-75
2022/07/03 09:52:54;;;;;;;8.20;5.30;;;;;;;31.97;100.00;64233.00;5073611;28;20204;-75
2022/07/03 09:55:21;;;;;;;7.63;5.13;;;;;;;31.77;100.00;64216.41;5071118;28;20221;-74
2022/07/03 09:58:01;;;;;;;8.30;5.10;;;;;;;31.52;100.00;64179.09;5065488;28;20236;-74
2022/07/03 10:00:32;;;;;;;6.90;4.97;;;;;;;32.39;100.00;64278.31;5067297;28;20225;-75
2022/07/03 10:03:01;;;;;;;7.30;4.87;;;;;;;31.84;100.00;64221.41;5067020;28;20255;-75
2022/07/03 10:05:31;;;;;;;9.03;5.07;;;;;;;32.47;100.00;64283.88;5053287;28;20203;-74
2022/07/03 10:08:00;;;;;;;7.40;5.07;;;;;;;32.49;100.00;64283.44;5071642;28;20198;-75
2022/07/03 10:10:29;;;;;;;6.17;4.60;;;;;;;31.50;100.00;64181.63;5073486;28;20215;-74
2022/07/03 10:12:58;;;;;;;8.27;4.83;;;;;;;32.04;100.00;64238.00;5072796;28;20261;-75
2022/07/03 10:15:26;;;;;;;7.10;4.40;;;;;;;32.19;100.00;64256.47;5061297;28;20196;-74
2022/07/03 10:17:59;;;;;;;6.47;4.20;;;;;;;32.18;100.00;64255.91;5062076;28;20201;-74
2022/07/03 10:20:28;;;;;;;5.50;4.40;;;;;;;32.69;100.00;64311.13;5053434;28;20250;-74
2022/07/03 10:22:56;;;;;;;4.30;3.90;;;;;;;32.62;100.00;64300.28;5053394;28;20216;-75
2022/07/03 10:25:24;;;;;;;8.87;4.60;;;;;;;32.70;100.00;64311.66;5053746;28;20205;-76
2022/07/03 10:27:51;;;;;;;7.47;4.07;;;;;;;32.31;100.00;64269.56;5052938;28;20660;-75
2022/07/03 10:30:20;;;;;;;4.70;4.20;;;;;;;31.77;100.00;64205.84;5053497;28;20224;-74
2022/07/03 10:32:51;;;;;;;4.97;4.10;;;;;;;29.43;100.00;63954.22;5054666;28;20253;-74
2022/07/03 10:35:25;;;;;;;6.47;4.90;;;;;;;30.39;100.00;64058.94;5052175;28;20660;-74
2022/07/03 10:38:24;;;;;;;5.00;4.30;;;;;;;30.92;100.00;64118.31;5054076;28;20201;-75
2022/07/03 10:46:31;;;;;;;4.63;4.13;;;;;;;30.89;100.00;64115.06;5053338;28;20318;-75
2022/07/03 10:49:04;;;;;;;6.60;4.33;;;;;;;30.98;100.00;64124.88;5053934;28;20213;-75
2022/07/03 10:51:51;;;;;;;6.03;4.20;;;;;;;30.94;100.00;64115.78;5042147;28;20197;-74
2022/07/03 10:54:20;;;;;;;7.13;4.27;;;;;;;30.79;100.00;64110.47;5052701;28;20232;-75
2022/07/03 10:57:09;;;;;;;8.00;4.93;;;;;;;31.61;100.00;64193.66;5052826;28;20214;-76
2022/07/03 11:00:03;;;;;;;9.13;4.57;;;;;;;32.28;100.00;64264.22;5039931;28;20316;-76
2022/07/03 11:02:34;;;;;;;7.13;4.47;;;;;;;32.55;100.00;64295.28;5065373;28;20214;-74
2022/07/03 11:05:20;;;;;;;7.07;4.40;;;;;;;32.65;100.00;64303.56;5045588;28;20208;-76
2022/07/03 11:08:09;;;;;;;7.67;4.53;;;;;;;32.83;100.00;64326.41;5056451;28;20201;-74
2022/07/03 11:10:40;;;;;;;6.23;4.60;;;;;;;32.79;100.00;64316.22;5051915;28;20201;-75
2022/07/03 11:13:21;;;;;;;7.77;4.83;;;;;;;32.87;100.00;64330.25;5062173;28;20768;-75
2022/07/03 11:15:52;;;;;;;8.80;4.07;;;;;;;33.06;100.00;64348.94;5071506;28;20206;-75
2022/07/03 11:18:31;;;;;;;8.00;4.10;;;;;;;33.19;100.00;64362.59;5071393;28;20204;-74
2022/07/03 11:21:34;;;;;;;7.07;4.70;;;;;;;32.79;100.00;64319.41;5070552;28;20704;-76
2022/07/03 11:24:28;;;;;;;6.10;4.80;;;;;;;33.13;100.00;64361.31;5070360;28;20216;-75
2022/07/03 11:27:19;;;;;;;9.00;4.73;;;;;;;32.95;100.00;64336.34;5070350;28;20673;-76
2022/07/03 11:29:56;;;;;;;6.20;4.43;;;;;;;33.44;100.00;64392.03;5071158;28;20219;-75
2022/07/03 11:32:46;;;;;;;7.17;5.17;;;;;;;33.81;100.00;64433.06;5060453;28;20242;-75
2022/07/03 11:35:46;;;;;;;9.93;5.70;;;;;;;33.99;100.00;64452.75;5069771;28;20242;-76
2022/07/03 11:38:16;;;;;;;8.20;5.67;;;;;;;33.81;100.00;64430.41;5070990;28;20265;-75
2022/07/03 11:40:48;;;;;;;9.33;5.00;;;;;;;33.54;100.00;64403.53;5070915;28;20225;-76
2022/07/03 11:43:15;;;;;;;8.73;5.57;;;;;;;33.13;100.00;64356.03;5070463;28;20665;-74